Airfield :
LOGIN :

Register | Disclaimer

   EN    FR    IT 

 










Legend :    VFR   Marginal VFR   IFR   Intensive IFR   Very Intensive IFR
Visi :
Ceiling :
>= 8 km
>= 3000ft
5 to 8 km
1000 to 3000 ft
1500m to 5 km
500 to 1000 ft
800 to 1500m
200 to 500 ft
< 800m
< 200 ft
Symbols :   Thunderstorms  Fog  Heavy snow  Heavy precipitations  Wind > 20 kt
SIGMETs :     Misc.  Thunderstorms  Icing  Turbulence  Mountain Waves  Volcanic Ashes







- Airport Elevation : 220 ft
- IATA code : CWL
- Download approach charts


EGFF - Cardiff Rhoose

CURRENT METAR :
  • 191220Z 10007KT 8000 -RA SCT004 BKN007 13/13 Q1000

EXPIRED METARs :
  • 191150Z 08006KT 7000 -RA SCT002 BKN003 13/13 Q1000
  • 191120Z AUTO 06006KT 6000 -RA BKN002/// OVC007/// //////TCU 12/12 Q1001 RERA
  • 191050Z AUTO 08006KT 3500 RA OVC003/// //////TCU 12/12 Q1001 REDZ
  • 191020Z AUTO 08008KT 5000 -RADZ BKN005 OVC030 12/12 Q1002
  • 190950Z AUTO 08009KT 7000 BKN010/// OVC031/// //////TCU 12/12 Q1002

TAF TAF EGFF
Valid from the 19 at 12:00 until the 20 at 12:00 UTC


191100Z 1912/2012 09008KT 9999 FEW004 SCT030
BECMG 1912/1915 14018KT
TEMPO 1912/1914 4000 RADZ BR BKN004
TEMPO 1914/1918 7000 RA BKN008
PROB30
TEMPO 1915/1918 18022G32KT 4000 +RA BKN004
BECMG 1918/1921 21016KT BKN010
BECMG 1921/1924 26022G32KT
TEMPO 2000/2006 27032G43KT 4000 SHRA BKN006
BECMG 2009/2012 22014KT
ATIS : +44 1446 729 319
No reported NOTAMs for that airfield.



MET'MAP, your aeronautical weather chart ! - Copyright ORBIFLY December 2007 - Disclaimer

ORBIFLY MET'MAP TEAM :

Programming & Development : Alexandra Zaïnal
Concept & Development : Baudouin d'Aumeries
Co-Development & Prog : Marc-Olivier Méhu
Technical & hardware support : Manuel Goepfert

Contact : metmap@orbifly.com




SOURCES & CREDITS :

   NOAA